Aviation Digital Data Service (ADDS)

Output produced by METARs form (1515 UTC 19 April 2019)
found at http://www.aviationweather.gov/metar/data/
 
Forecast for: FMEE (ST. DENIS/GILLOT, FR)
Text: TAF FMEE 191100Z 1912/2018 07015KT 9999 FEW028 SCT046
Forecast period: 1200 to 1500 UTC 19 April 2019
Forecast type: FROM: standard forecast or significant change
Winds: from the ENE (70 degrees) at 17 MPH (15 knots; 7.7 m/s)
Visibility: 6 or more miles 10+ km)
Ceiling: at least 12,000 feet AGL
Clouds: few clouds at 2800 feet AGL
scattered clouds at 4600 feet AGL
Weather: no significant weather forecast for this period
Text: BECMG 1915/1916 13010KT
Forecast period: 1500 UTC 19 April 2019 to 0400 UTC 20 April 2019
Forecast type: BECOMING: Conditions expected to become as follows by 1600 UTC 19 April 2019
Winds: from the SE (130 degrees) at 12 MPH (10 knots; 5.1 m/s)
Visibility: 6 or more miles 10+ km)
Ceiling: at least 12,000 feet AGL
Clouds: few clouds at 2800 feet AGL
scattered clouds at 4600 feet AGL
Weather: no significant weather forecast for this period
Text: BECMG 2004/2005 07012KT
Forecast period: 0400 to 1800 UTC 20 April 2019
Forecast type: BECOMING: Conditions expected to become as follows by 0500 UTC 20 April 2019
Winds: from the ENE (70 degrees) at 14 MPH (12 knots; 6.2 m/s)
Visibility: 6 or more miles 10+ km)
Ceiling: at least 12,000 feet AGL
Clouds: few clouds at 2800 feet AGL
scattered clouds at 4600 feet AGL
Weather: no significant weather forecast for this period